sensor_id;sensor_type;location;lat;lon;timestamp;P1;durP1;ratioP1;P2;durP2;ratioP2
47053;SDS011;32811;52.382;5.270;2023-06-04T00:00:21;2.55;;;0.52;;
47053;SDS011;32811;52.382;5.270;2023-06-04T00:02:48;3.10;;;1.20;;
47053;SDS011;32811;52.382;5.270;2023-06-04T00:05:14;1.98;;;0.55;;
47053;SDS011;32811;52.382;5.270;2023-06-04T00:07:41;2.83;;;0.70;;
47053;SDS011;32811;52.382;5.270;2023-06-04T00:10:07;1.50;;;0.68;;
47053;SDS011;32811;52.382;5.270;2023-06-04T00:12:35;1.15;;;0.50;;
47053;SDS011;32811;52.382;5.270;2023-06-04T00:15:02;0.77;;;0.60;;
47053;SDS011;32811;52.382;5.270;2023-06-04T00:17:29;0.63;;;0.47;;
47053;SDS011;32811;52.382;5.270;2023-06-04T00:19:55;1.10;;;0.50;;
47053;SDS011;32811;52.382;5.270;2023-06-04T00:22:22;2.33;;;0.70;;
47053;SDS011;32811;52.382;5.270;2023-06-04T00:24:49;1.65;;;0.80;;
47053;SDS011;32811;52.382;5.270;2023-06-04T00:27:16;0.65;;;0.40;;
47053;SDS011;32811;52.382;5.270;2023-06-04T00:29:43;1.27;;;0.50;;
47053;SDS011;32811;52.382;5.270;2023-06-04T00:32:10;1.90;;;0.75;;
47053;SDS011;32811;52.382;5.270;2023-06-04T00:34:36;2.90;;;0.70;;
47053;SDS011;32811;52.382;5.270;2023-06-04T00:37:03;1.92;;;0.70;;
47053;SDS011;32811;52.382;5.270;2023-06-04T00:39:30;1.73;;;0.60;;
47053;SDS011;32811;52.382;5.270;2023-06-04T00:41:56;1.13;;;0.52;;
47053;SDS011;32811;52.382;5.270;2023-06-04T00:44:23;4.00;;;0.98;;
47053;SDS011;32811;52.382;5.270;2023-06-04T00:46:51;0.85;;;0.60;;
47053;SDS011;32811;52.382;5.270;2023-06-04T00:49:20;1.15;;;0.50;;
47053;SDS011;32811;52.382;5.270;2023-06-04T00:51:46;4.50;;;0.55;;
47053;SDS011;32811;52.382;5.270;2023-06-04T00:54:13;1.65;;;1.00;;
47053;SDS011;32811;52.382;5.270;2023-06-04T00:56:44;1.23;;;0.60;;
47053;SDS011;32811;52.382;5.270;2023-06-04T00:59:10;1.85;;;0.68;;
47053;SDS011;32811;52.382;5.270;2023-06-04T01:04:36;1.20;;;0.68;;
47053;SDS011;32811;52.382;5.270;2023-06-04T01:07:09;2.30;;;0.65;;
47053;SDS011;32811;52.382;5.270;2023-06-04T01:09:36;3.35;;;0.90;;
47053;SDS011;32811;52.382;5.270;2023-06-04T01:12:04;2.28;;;0.90;;
47053;SDS011;32811;52.382;5.270;2023-06-04T01:14:31;3.30;;;0.93;;
47053;SDS011;32811;52.382;5.270;2023-06-04T01:25:33;1.17;;;0.70;;
47053;SDS011;32811;52.382;5.270;2023-06-04T01:28:10;1.52;;;0.98;;
47053;SDS011;32811;52.382;5.270;2023-06-04T01:30:39;2.80;;;0.90;;
47053;SDS011;32811;52.382;5.270;2023-06-04T01:33:21;1.20;;;0.77;;
47053;SDS011;32811;52.382;5.270;2023-06-04T01:35:49;1.58;;;0.70;;
47053;SDS011;32811;52.382;5.270;2023-06-04T01:38:16;2.05;;;0.77;;
47053;SDS011;32811;52.382;5.270;2023-06-04T01:40:42;3.42;;;1.10;;
47053;SDS011;32811;52.382;5.270;2023-06-04T01:43:09;1.13;;;0.68;;
47053;SDS011;32811;52.382;5.270;2023-06-04T01:45:36;4.43;;;0.93;;
47053;SDS011;32811;52.382;5.270;2023-06-04T01:48:03;1.30;;;0.65;;
47053;SDS011;32811;52.382;5.270;2023-06-04T01:50:30;4.80;;;0.60;;
47053;SDS011;32811;52.382;5.270;2023-06-04T01:52:58;3.28;;;0.70;;
47053;SDS011;32811;52.382;5.270;2023-06-04T01:55:25;4.03;;;0.80;;
47053;SDS011;32811;52.382;5.270;2023-06-04T01:57:53;3.22;;;0.95;;
47053;SDS011;32811;52.382;5.270;2023-06-04T02:00:19;4.20;;;0.60;;
47053;SDS011;32811;52.382;5.270;2023-06-04T02:02:46;4.13;;;1.23;;
47053;SDS011;32811;52.382;5.270;2023-06-04T02:05:16;3.97;;;0.80;;
47053;SDS011;32811;52.382;5.270;2023-06-04T02:07:44;3.58;;;1.13;;
47053;SDS011;32811;52.382;5.270;2023-06-04T02:10:12;1.42;;;0.70;;
47053;SDS011;32811;52.382;5.270;2023-06-04T02:12:55;2.38;;;0.82;;
47053;SDS011;32811;52.382;5.270;2023-06-04T02:15:24;0.70;;;0.65;;
47053;SDS011;32811;52.382;5.270;2023-06-04T02:17:56;3.20;;;0.90;;
47053;SDS011;32811;52.382;5.270;2023-06-04T02:20:27;5.10;;;0.82;;
47053;SDS011;32811;52.382;5.270;2023-06-04T02:22:54;1.70;;;0.73;;
47053;SDS011;32811;52.382;5.270;2023-06-04T02:25:22;2.15;;;0.90;;
47053;SDS011;32811;52.382;5.270;2023-06-04T02:27:51;1.83;;;1.10;;
47053;SDS011;32811;52.382;5.270;2023-06-04T02:30:18;1.85;;;0.98;;
47053;SDS011;32811;52.382;5.270;2023-06-04T02:32:45;2.08;;;0.93;;
47053;SDS011;32811;52.382;5.270;2023-06-04T02:35:18;3.65;;;0.98;;
47053;SDS011;32811;52.382;5.270;2023-06-04T02:37:44;1.48;;;0.88;;
47053;SDS011;32811;52.382;5.270;2023-06-04T02:40:11;1.60;;;0.93;;
47053;SDS011;32811;52.382;5.270;2023-06-04T02:42:37;4.78;;;1.58;;
47053;SDS011;32811;52.382;5.270;2023-06-04T02:45:04;1.42;;;1.00;;
47053;SDS011;32811;52.382;5.270;2023-06-04T02:47:31;6.00;;;1.05;;
47053;SDS011;32811;52.382;5.270;2023-06-04T02:49:58;1.90;;;0.82;;
47053;SDS011;32811;52.382;5.270;2023-06-04T02:52:24;3.08;;;1.00;;
47053;SDS011;32811;52.382;5.270;2023-06-04T02:54:51;2.08;;;0.93;;
47053;SDS011;32811;52.382;5.270;2023-06-04T02:57:18;3.05;;;1.23;;
47053;SDS011;32811;52.382;5.270;2023-06-04T02:59:44;3.35;;;1.17;;
47053;SDS011;32811;52.382;5.270;2023-06-04T03:02:11;4.28;;;1.20;;
47053;SDS011;32811;52.382;5.270;2023-06-04T03:04:38;1.95;;;1.20;;
47053;SDS011;32811;52.382;5.270;2023-06-04T03:07:05;4.43;;;1.20;;
47053;SDS011;32811;52.382;5.270;2023-06-04T03:09:32;5.85;;;0.95;;
47053;SDS011;32811;52.382;5.270;2023-06-04T03:12:00;2.88;;;1.00;;
47053;SDS011;32811;52.382;5.270;2023-06-04T03:14:28;3.67;;;1.15;;
47053;SDS011;32811;52.382;5.270;2023-06-04T03:17:01;6.55;;;1.60;;
47053;SDS011;32811;52.382;5.270;2023-06-04T03:19:35;2.88;;;1.20;;
47053;SDS011;32811;52.382;5.270;2023-06-04T03:22:05;2.42;;;1.30;;
47053;SDS011;32811;52.382;5.270;2023-06-04T03:24:34;2.13;;;1.30;;
47053;SDS011;32811;52.382;5.270;2023-06-04T03:27:02;1.50;;;1.35;;
47053;SDS011;32811;52.382;5.270;2023-06-04T03:29:30;2.63;;;1.52;;
47053;SDS011;32811;52.382;5.270;2023-06-04T03:31:59;4.10;;;1.80;;
47053;SDS011;32811;52.382;5.270;2023-06-04T03:34:26;3.63;;;1.90;;
47053;SDS011;32811;52.382;5.270;2023-06-04T03:36:53;4.07;;;1.80;;
47053;SDS011;32811;52.382;5.270;2023-06-04T03:39:21;5.30;;;1.75;;
47053;SDS011;32811;52.382;5.270;2023-06-04T03:41:48;4.43;;;1.77;;
47053;SDS011;32811;52.382;5.270;2023-06-04T03:44:16;3.35;;;1.70;;
47053;SDS011;32811;52.382;5.270;2023-06-04T03:46:44;6.95;;;2.85;;
47053;SDS011;32811;52.382;5.270;2023-06-04T03:49:12;4.05;;;2.05;;
47053;SDS011;32811;52.382;5.270;2023-06-04T03:51:40;2.78;;;1.63;;
47053;SDS011;32811;52.382;5.270;2023-06-04T03:54:07;5.28;;;1.98;;
47053;SDS011;32811;52.382;5.270;2023-06-04T03:56:34;6.45;;;2.90;;
47053;SDS011;32811;52.382;5.270;2023-06-04T03:59:01;3.83;;;1.65;;
47053;SDS011;32811;52.382;5.270;2023-06-04T04:01:28;7.03;;;1.80;;
47053;SDS011;32811;52.382;5.270;2023-06-04T04:03:54;3.83;;;1.55;;
47053;SDS011;32811;52.382;5.270;2023-06-04T04:06:21;6.10;;;1.60;;
47053;SDS011;32811;52.382;5.270;2023-06-04T04:08:48;3.35;;;2.17;;
47053;SDS011;32811;52.382;5.270;2023-06-04T04:11:15;5.88;;;2.05;;
47053;SDS011;32811;52.382;5.270;2023-06-04T04:13:46;5.78;;;2.75;;
47053;SDS011;32811;52.382;5.270;2023-06-04T04:16:13;3.13;;;1.70;;
47053;SDS011;32811;52.382;5.270;2023-06-04T04:18:43;4.57;;;1.75;;
47053;SDS011;32811;52.382;5.270;2023-06-04T04:21:11;7.97;;;2.17;;
47053;SDS011;32811;52.382;5.270;2023-06-04T04:23:38;3.00;;;1.80;;
47053;SDS011;32811;52.382;5.270;2023-06-04T04:26:09;4.30;;;2.08;;
47053;SDS011;32811;52.382;5.270;2023-06-04T04:28:43;5.67;;;1.90;;
47053;SDS011;32811;52.382;5.270;2023-06-04T04:31:10;5.35;;;2.00;;
47053;SDS011;32811;52.382;5.270;2023-06-04T04:33:37;5.72;;;2.03;;
47053;SDS011;32811;52.382;5.270;2023-06-04T04:36:06;6.60;;;2.45;;
47053;SDS011;32811;52.382;5.270;2023-06-04T04:38:39;4.25;;;1.73;;
47053;SDS011;32811;52.382;5.270;2023-06-04T04:41:07;7.45;;;1.70;;
47053;SDS011;32811;52.382;5.270;2023-06-04T04:43:35;5.40;;;1.88;;
47053;SDS011;32811;52.382;5.270;2023-06-04T04:46:06;6.65;;;2.20;;
47053;SDS011;32811;52.382;5.270;2023-06-04T04:48:34;5.55;;;2.17;;
47053;SDS011;32811;52.382;5.270;2023-06-04T04:51:01;5.15;;;1.88;;
47053;SDS011;32811;52.382;5.270;2023-06-04T04:53:28;4.00;;;1.92;;
47053;SDS011;32811;52.382;5.270;2023-06-04T04:55:55;6.78;;;1.98;;
47053;SDS011;32811;52.382;5.270;2023-06-04T04:58:23;8.02;;;2.63;;
47053;SDS011;32811;52.382;5.270;2023-06-04T05:00:50;12.13;;;2.33;;
47053;SDS011;32811;52.382;5.270;2023-06-04T05:03:17;6.88;;;1.75;;
47053;SDS011;32811;52.382;5.270;2023-06-04T05:05:44;7.75;;;2.05;;
47053;SDS011;32811;52.382;5.270;2023-06-04T05:08:12;4.93;;;1.75;;
47053;SDS011;32811;52.382;5.270;2023-06-04T05:10:39;5.13;;;2.03;;
47053;SDS011;32811;52.382;5.270;2023-06-04T05:13:06;4.47;;;2.35;;
47053;SDS011;32811;52.382;5.270;2023-06-04T05:15:33;7.57;;;3.03;;
47053;SDS011;32811;52.382;5.270;2023-06-04T05:18:02;4.35;;;1.58;;
47053;SDS011;32811;52.382;5.270;2023-06-04T05:20:30;8.07;;;1.83;;
47053;SDS011;32811;52.382;5.270;2023-06-04T05:22:57;4.30;;;2.00;;
47053;SDS011;32811;52.382;5.270;2023-06-04T05:25:25;7.38;;;2.15;;
47053;SDS011;32811;52.382;5.270;2023-06-04T05:27:53;11.95;;;1.90;;
47053;SDS011;32811;52.382;5.270;2023-06-04T05:30:25;3.83;;;1.50;;
47053;SDS011;32811;52.382;5.270;2023-06-04T05:32:52;6.68;;;1.95;;
47053;SDS011;32811;52.382;5.270;2023-06-04T05:35:21;3.67;;;1.83;;
47053;SDS011;32811;52.382;5.270;2023-06-04T05:37:48;7.63;;;2.03;;
47053;SDS011;32811;52.382;5.270;2023-06-04T05:40:20;5.82;;;1.40;;
47053;SDS011;32811;52.382;5.270;2023-06-04T05:42:48;2.67;;;0.95;;
47053;SDS011;32811;52.382;5.270;2023-06-04T05:45:18;3.33;;;1.23;;
47053;SDS011;32811;52.382;5.270;2023-06-04T05:47:48;6.38;;;1.40;;
47053;SDS011;32811;52.382;5.270;2023-06-04T05:50:16;11.13;;;1.13;;
47053;SDS011;32811;52.382;5.270;2023-06-04T05:52:43;4.65;;;1.40;;
47053;SDS011;32811;52.382;5.270;2023-06-04T05:55:10;4.57;;;1.40;;
47053;SDS011;32811;52.382;5.270;2023-06-04T05:57:37;6.75;;;1.73;;
47053;SDS011;32811;52.382;5.270;2023-06-04T06:00:04;6.43;;;2.25;;
47053;SDS011;32811;52.382;5.270;2023-06-04T06:02:39;3.08;;;1.30;;
47053;SDS011;32811;52.382;5.270;2023-06-04T06:05:08;4.15;;;1.48;;
47053;SDS011;32811;52.382;5.270;2023-06-04T06:07:35;2.95;;;1.25;;
47053;SDS011;32811;52.382;5.270;2023-06-04T06:10:02;4.53;;;1.73;;
47053;SDS011;32811;52.382;5.270;2023-06-04T06:12:30;4.50;;;1.30;;
47053;SDS011;32811;52.382;5.270;2023-06-04T06:15:00;4.28;;;1.20;;
47053;SDS011;32811;52.382;5.270;2023-06-04T06:17:27;3.60;;;1.42;;
47053;SDS011;32811;52.382;5.270;2023-06-04T06:19:55;4.88;;;1.38;;
47053;SDS011;32811;52.382;5.270;2023-06-04T06:22:22;3.42;;;1.70;;
47053;SDS011;32811;52.382;5.270;2023-06-04T06:24:49;7.40;;;1.33;;
47053;SDS011;32811;52.382;5.270;2023-06-04T06:27:17;6.95;;;1.75;;
47053;SDS011;32811;52.382;5.270;2023-06-04T06:29:46;3.25;;;1.35;;
47053;SDS011;32811;52.382;5.270;2023-06-04T06:34:53;4.75;;;1.65;;
47053;SDS011;32811;52.382;5.270;2023-06-04T06:37:20;7.10;;;1.13;;
47053;SDS011;32811;52.382;5.270;2023-06-04T06:39:47;6.57;;;1.38;;
47053;SDS011;32811;52.382;5.270;2023-06-04T06:42:18;6.53;;;1.55;;
47053;SDS011;32811;52.382;5.270;2023-06-04T06:44:50;3.85;;;1.20;;
47053;SDS011;32811;52.382;5.270;2023-06-04T06:47:23;6.25;;;1.30;;
47053;SDS011;32811;52.382;5.270;2023-06-04T06:49:53;4.47;;;1.10;;
47053;SDS011;32811;52.382;5.270;2023-06-04T06:52:23;4.00;;;1.65;;
47053;SDS011;32811;52.382;5.270;2023-06-04T06:55:15;5.35;;;1.27;;
47053;SDS011;32811;52.382;5.270;2023-06-04T06:57:49;4.60;;;1.40;;
47053;SDS011;32811;52.382;5.270;2023-06-04T07:00:26;7.13;;;1.80;;
47053;SDS011;32811;52.382;5.270;2023-06-04T07:02:59;7.68;;;2.33;;
47053;SDS011;32811;52.382;5.270;2023-06-04T07:05:30;12.80;;;1.65;;
47053;SDS011;32811;52.382;5.270;2023-06-04T07:07:57;5.35;;;1.35;;
47053;SDS011;32811;52.382;5.270;2023-06-04T07:10:29;4.60;;;1.27;;
47053;SDS011;32811;52.382;5.270;2023-06-04T07:13:07;6.07;;;1.75;;
47053;SDS011;32811;52.382;5.270;2023-06-04T07:15:37;4.20;;;1.50;;
47053;SDS011;32811;52.382;5.270;2023-06-04T07:18:13;3.33;;;1.23;;
47053;SDS011;32811;52.382;5.270;2023-06-04T07:20:48;6.28;;;1.38;;
47053;SDS011;32811;52.382;5.270;2023-06-04T07:23:42;3.45;;;1.05;;
47053;SDS011;32811;52.382;5.270;2023-06-04T07:26:20;6.32;;;2.05;;
47053;SDS011;32811;52.382;5.270;2023-06-04T07:28:54;6.32;;;1.50;;
47053;SDS011;32811;52.382;5.270;2023-06-04T07:31:27;5.22;;;1.83;;
47053;SDS011;32811;52.382;5.270;2023-06-04T07:33:57;5.22;;;1.25;;
47053;SDS011;32811;52.382;5.270;2023-06-04T07:36:30;3.38;;;1.45;;
47053;SDS011;32811;52.382;5.270;2023-06-04T07:39:16;3.53;;;1.00;;
47053;SDS011;32811;52.382;5.270;2023-06-04T07:41:57;6.28;;;0.93;;
47053;SDS011;32811;52.382;5.270;2023-06-04T07:44:44;3.97;;;1.38;;
47053;SDS011;32811;52.382;5.270;2023-06-04T07:47:15;6.30;;;1.33;;
47053;SDS011;32811;52.382;5.270;2023-06-04T07:49:46;4.03;;;1.00;;
47053;SDS011;32811;52.382;5.270;2023-06-04T07:52:29;5.63;;;1.35;;
47053;SDS011;32811;52.382;5.270;2023-06-04T07:55:30;6.88;;;1.33;;
47053;SDS011;32811;52.382;5.270;2023-06-04T07:58:20;6.03;;;1.25;;
47053;SDS011;32811;52.382;5.270;2023-06-04T08:01:26;3.80;;;1.08;;
47053;SDS011;32811;52.382;5.270;2023-06-04T08:04:00;5.03;;;0.98;;
47053;SDS011;32811;52.382;5.270;2023-06-04T08:06:45;7.35;;;1.42;;
47053;SDS011;32811;52.382;5.270;2023-06-04T08:09:24;4.93;;;1.55;;
47053;SDS011;32811;52.382;5.270;2023-06-04T08:11:51;7.43;;;1.20;;
47053;SDS011;32811;52.382;5.270;2023-06-04T08:14:25;11.77;;;1.73;;
47053;SDS011;32811;52.382;5.270;2023-06-04T08:17:01;6.93;;;1.77;;
47053;SDS011;32811;52.382;5.270;2023-06-04T08:19:35;5.07;;;1.13;;
47053;SDS011;32811;52.382;5.270;2023-06-04T08:22:03;3.33;;;1.05;;
47053;SDS011;32811;52.382;5.270;2023-06-04T08:24:32;5.25;;;1.10;;
47053;SDS011;32811;52.382;5.270;2023-06-04T08:27:08;4.50;;;1.20;;
47053;SDS011;32811;52.382;5.270;2023-06-04T08:29:45;4.35;;;1.63;;
47053;SDS011;32811;52.382;5.270;2023-06-04T08:32:39;4.22;;;1.20;;
47053;SDS011;32811;52.382;5.270;2023-06-04T08:35:18;5.03;;;1.52;;
47053;SDS011;32811;52.382;5.270;2023-06-04T08:38:13;4.20;;;1.08;;
47053;SDS011;32811;52.382;5.270;2023-06-04T08:40:45;3.75;;;0.95;;
47053;SDS011;32811;52.382;5.270;2023-06-04T08:43:20;4.82;;;1.45;;
47053;SDS011;32811;52.382;5.270;2023-06-04T08:45:50;3.78;;;0.98;;
47053;SDS011;32811;52.382;5.270;2023-06-04T08:48:43;9.25;;;1.48;;
47053;SDS011;32811;52.382;5.270;2023-06-04T08:51:22;3.58;;;0.98;;
47053;SDS011;32811;52.382;5.270;2023-06-04T08:53:55;5.18;;;1.15;;
47053;SDS011;32811;52.382;5.270;2023-06-04T08:56:32;4.72;;;1.77;;
47053;SDS011;32811;52.382;5.270;2023-06-04T08:59:03;4.57;;;1.08;;
47053;SDS011;32811;52.382;5.270;2023-06-04T09:02:10;8.18;;;1.73;;
47053;SDS011;32811;52.382;5.270;2023-06-04T09:04:44;4.68;;;1.38;;
47053;SDS011;32811;52.382;5.270;2023-06-04T09:07:14;3.97;;;1.00;;
47053;SDS011;32811;52.382;5.270;2023-06-04T09:09:47;2.83;;;1.17;;
47053;SDS011;32811;52.382;5.270;2023-06-04T09:12:35;4.22;;;1.33;;
47053;SDS011;32811;52.382;5.270;2023-06-04T09:15:15;4.60;;;1.25;;
47053;SDS011;32811;52.382;5.270;2023-06-04T09:17:58;4.10;;;1.35;;
47053;SDS011;32811;52.382;5.270;2023-06-04T09:20:28;6.43;;;1.55;;
47053;SDS011;32811;52.382;5.270;2023-06-04T09:22:57;4.15;;;1.48;;
47053;SDS011;32811;52.382;5.270;2023-06-04T09:26:20;3.03;;;1.70;;
47053;SDS011;32811;52.382;5.270;2023-06-04T09:28:53;2.08;;;0.80;;
47053;SDS011;32811;52.382;5.270;2023-06-04T09:31:45;2.83;;;0.95;;
47053;SDS011;32811;52.382;5.270;2023-06-04T09:34:26;4.35;;;1.90;;
47053;SDS011;32811;52.382;5.270;2023-06-04T09:37:13;3.20;;;1.10;;
47053;SDS011;32811;52.382;5.270;2023-06-04T09:39:54;6.53;;;1.35;;
47053;SDS011;32811;52.382;5.270;2023-06-04T09:42:45;3.42;;;1.30;;
47053;SDS011;32811;52.382;5.270;2023-06-04T09:45:26;5.72;;;1.40;;
47053;SDS011;32811;52.382;5.270;2023-06-04T09:48:00;4.75;;;1.88;;
47053;SDS011;32811;52.382;5.270;2023-06-04T09:50:38;2.75;;;1.27;;
47053;SDS011;32811;52.382;5.270;2023-06-04T09:53:15;4.15;;;1.58;;
47053;SDS011;32811;52.382;5.270;2023-06-04T09:55:55;3.83;;;1.33;;
47053;SDS011;32811;52.382;5.270;2023-06-04T09:58:42;6.72;;;1.63;;
47053;SDS011;32811;52.382;5.270;2023-06-04T10:01:15;4.80;;;1.40;;
47053;SDS011;32811;52.382;5.270;2023-06-04T10:03:46;4.35;;;1.95;;
47053;SDS011;32811;52.382;5.270;2023-06-04T10:06:15;4.72;;;1.13;;
47053;SDS011;32811;52.382;5.270;2023-06-04T10:08:45;6.00;;;1.65;;
47053;SDS011;32811;52.382;5.270;2023-06-04T10:11:14;7.60;;;1.30;;
47053;SDS011;32811;52.382;5.270;2023-06-04T10:13:53;5.38;;;2.00;;
47053;SDS011;32811;52.382;5.270;2023-06-04T10:16:23;5.63;;;1.60;;
47053;SDS011;32811;52.382;5.270;2023-06-04T10:18:59;7.05;;;2.25;;
47053;SDS011;32811;52.382;5.270;2023-06-04T10:21:27;3.13;;;1.55;;
47053;SDS011;32811;52.382;5.270;2023-06-04T10:23:58;6.10;;;2.35;;
47053;SDS011;32811;52.382;5.270;2023-06-04T10:26:25;6.07;;;1.80;;
47053;SDS011;32811;52.382;5.270;2023-06-04T10:28:52;4.93;;;2.35;;
47053;SDS011;32811;52.382;5.270;2023-06-04T10:31:19;6.80;;;1.85;;
47053;SDS011;32811;52.382;5.270;2023-06-04T10:33:46;4.93;;;1.63;;
47053;SDS011;32811;52.382;5.270;2023-06-04T10:36:17;5.20;;;1.85;;
47053;SDS011;32811;52.382;5.270;2023-06-04T10:38:52;7.25;;;2.47;;
47053;SDS011;32811;52.382;5.270;2023-06-04T10:41:22;7.53;;;1.95;;
47053;SDS011;32811;52.382;5.270;2023-06-04T10:43:50;4.82;;;1.40;;
47053;SDS011;32811;52.382;5.270;2023-06-04T10:46:37;4.60;;;2.53;;
47053;SDS011;32811;52.382;5.270;2023-06-04T10:49:07;4.68;;;1.60;;
47053;SDS011;32811;52.382;5.270;2023-06-04T10:51:36;4.35;;;1.70;;
47053;SDS011;32811;52.382;5.270;2023-06-04T10:54:03;3.97;;;1.50;;
47053;SDS011;32811;52.382;5.270;2023-06-04T10:56:31;3.95;;;1.55;;
47053;SDS011;32811;52.382;5.270;2023-06-04T10:58:59;4.22;;;1.27;;
47053;SDS011;32811;52.382;5.270;2023-06-04T11:01:32;5.28;;;2.30;;
47053;SDS011;32811;52.382;5.270;2023-06-04T11:04:02;3.88;;;1.20;;
47053;SDS011;32811;52.382;5.270;2023-06-04T11:06:32;5.68;;;1.27;;
47053;SDS011;32811;52.382;5.270;2023-06-04T11:09:05;3.83;;;1.30;;
47053;SDS011;32811;52.382;5.270;2023-06-04T11:11:32;4.13;;;1.42;;
47053;SDS011;32811;52.382;5.270;2023-06-04T11:14:08;5.13;;;1.63;;
47053;SDS011;32811;52.382;5.270;2023-06-04T11:16:36;4.80;;;1.33;;
47053;SDS011;32811;52.382;5.270;2023-06-04T11:19:03;6.68;;;1.05;;
47053;SDS011;32811;52.382;5.270;2023-06-04T11:21:30;5.00;;;1.48;;
47053;SDS011;32811;52.382;5.270;2023-06-04T11:24:00;4.13;;;1.08;;
47053;SDS011;32811;52.382;5.270;2023-06-04T11:26:31;3.63;;;1.08;;
47053;SDS011;32811;52.382;5.270;2023-06-04T11:28:59;4.25;;;1.00;;
47053;SDS011;32811;52.382;5.270;2023-06-04T11:31:26;7.07;;;1.60;;
47053;SDS011;32811;52.382;5.270;2023-06-04T11:33:53;3.75;;;1.60;;
47053;SDS011;32811;52.382;5.270;2023-06-04T11:36:27;4.57;;;1.52;;
47053;SDS011;32811;52.382;5.270;2023-06-04T11:38:55;4.20;;;1.27;;
47053;SDS011;32811;52.382;5.270;2023-06-04T11:41:33;4.63;;;1.30;;
47053;SDS011;32811;52.382;5.270;2023-06-04T11:44:02;5.80;;;1.17;;
47053;SDS011;32811;52.382;5.270;2023-06-04T11:46:39;3.63;;;1.00;;
47053;SDS011;32811;52.382;5.270;2023-06-04T11:49:07;2.40;;;0.70;;
47053;SDS011;32811;52.382;5.270;2023-06-04T11:51:33;2.38;;;0.90;;
47053;SDS011;32811;52.382;5.270;2023-06-04T11:54:01;5.47;;;1.02;;
47053;SDS011;32811;52.382;5.270;2023-06-04T11:56:28;4.65;;;0.80;;
47053;SDS011;32811;52.382;5.270;2023-06-04T11:58:55;4.22;;;1.45;;
47053;SDS011;32811;52.382;5.270;2023-06-04T12:01:22;3.92;;;1.17;;
47053;SDS011;32811;52.382;5.270;2023-06-04T12:03:49;4.70;;;1.48;;
47053;SDS011;32811;52.382;5.270;2023-06-04T12:06:17;7.10;;;1.23;;
47053;SDS011;32811;52.382;5.270;2023-06-04T12:08:50;7.40;;;1.17;;
47053;SDS011;32811;52.382;5.270;2023-06-04T12:11:33;5.30;;;1.23;;
47053;SDS011;32811;52.382;5.270;2023-06-04T12:14:03;2.38;;;0.88;;
47053;SDS011;32811;52.382;5.270;2023-06-04T12:16:34;2.83;;;0.70;;
47053;SDS011;32811;52.382;5.270;2023-06-04T12:19:04;2.85;;;1.08;;
47053;SDS011;32811;52.382;5.270;2023-06-04T12:21:38;3.40;;;0.90;;
47053;SDS011;32811;52.382;5.270;2023-06-04T12:26:41;4.05;;;1.02;;
47053;SDS011;32811;52.382;5.270;2023-06-04T12:29:24;4.22;;;0.93;;
47053;SDS011;32811;52.382;5.270;2023-06-04T12:31:50;2.45;;;0.98;;
47053;SDS011;32811;52.382;5.270;2023-06-04T12:34:39;2.80;;;0.80;;
47053;SDS011;32811;52.382;5.270;2023-06-04T12:37:07;2.15;;;0.75;;
47053;SDS011;32811;52.382;5.270;2023-06-04T12:39:34;2.35;;;0.68;;
47053;SDS011;32811;52.382;5.270;2023-06-04T12:42:05;6.82;;;0.95;;
47053;SDS011;32811;52.382;5.270;2023-06-04T12:44:40;2.45;;;0.80;;
47053;SDS011;32811;52.382;5.270;2023-06-04T12:47:07;2.28;;;0.80;;
47053;SDS011;32811;52.382;5.270;2023-06-04T12:49:34;3.17;;;0.60;;
47053;SDS011;32811;52.382;5.270;2023-06-04T12:52:01;4.53;;;1.15;;
47053;SDS011;32811;52.382;5.270;2023-06-04T12:54:29;5.47;;;1.00;;
47053;SDS011;32811;52.382;5.270;2023-06-04T12:56:56;5.22;;;0.80;;
47053;SDS011;32811;52.382;5.270;2023-06-04T12:59:24;3.00;;;1.13;;
47053;SDS011;32811;52.382;5.270;2023-06-04T13:01:53;6.13;;;0.90;;
47053;SDS011;32811;52.382;5.270;2023-06-04T13:04:21;3.90;;;1.10;;
47053;SDS011;32811;52.382;5.270;2023-06-04T13:06:50;4.90;;;1.45;;
47053;SDS011;32811;52.382;5.270;2023-06-04T13:09:25;3.35;;;0.82;;
47053;SDS011;32811;52.382;5.270;2023-06-04T13:11:55;4.18;;;1.77;;
47053;SDS011;32811;52.382;5.270;2023-06-04T13:14:24;1.52;;;0.68;;
47053;SDS011;32811;52.382;5.270;2023-06-04T13:16:50;2.33;;;0.82;;
47053;SDS011;32811;52.382;5.270;2023-06-04T13:19:18;2.67;;;0.93;;
47053;SDS011;32811;52.382;5.270;2023-06-04T13:21:48;2.30;;;0.55;;
47053;SDS011;32811;52.382;5.270;2023-06-04T13:24:15;3.00;;;0.73;;
47053;SDS011;32811;52.382;5.270;2023-06-04T13:26:42;4.05;;;0.75;;
47053;SDS011;32811;52.382;5.270;2023-06-04T13:29:12;5.95;;;1.05;;
47053;SDS011;32811;52.382;5.270;2023-06-04T13:31:39;1.70;;;0.60;;
47053;SDS011;32811;52.382;5.270;2023-06-04T13:34:07;3.92;;;1.13;;
47053;SDS011;32811;52.382;5.270;2023-06-04T13:36:52;3.63;;;0.70;;
47053;SDS011;32811;52.382;5.270;2023-06-04T13:39:19;4.72;;;0.82;;
47053;SDS011;32811;52.382;5.270;2023-06-04T13:41:48;4.43;;;0.88;;
47053;SDS011;32811;52.382;5.270;2023-06-04T13:44:15;1.58;;;0.90;;
47053;SDS011;32811;52.382;5.270;2023-06-04T13:46:42;3.17;;;0.88;;
47053;SDS011;32811;52.382;5.270;2023-06-04T13:49:09;2.05;;;0.68;;
47053;SDS011;32811;52.382;5.270;2023-06-04T13:51:35;2.17;;;0.90;;
47053;SDS011;32811;52.382;5.270;2023-06-04T13:54:02;5.50;;;1.90;;
47053;SDS011;32811;52.382;5.270;2023-06-04T13:56:29;4.38;;;1.02;;
47053;SDS011;32811;52.382;5.270;2023-06-04T13:58:56;4.30;;;0.82;;
47053;SDS011;32811;52.382;5.270;2023-06-04T14:01:22;3.60;;;1.17;;
47053;SDS011;32811;52.382;5.270;2023-06-04T14:03:49;5.88;;;1.63;;
47053;SDS011;32811;52.382;5.270;2023-06-04T14:06:16;1.80;;;0.70;;
47053;SDS011;32811;52.382;5.270;2023-06-04T14:08:43;5.90;;;1.15;;
47053;SDS011;32811;52.382;5.270;2023-06-04T14:11:10;3.92;;;1.20;;
47053;SDS011;32811;52.382;5.270;2023-06-04T14:13:37;2.50;;;0.50;;
47053;SDS011;32811;52.382;5.270;2023-06-04T14:16:07;2.47;;;0.77;;
47053;SDS011;32811;52.382;5.270;2023-06-04T14:18:34;8.38;;;1.20;;
47053;SDS011;32811;52.382;5.270;2023-06-04T14:21:01;2.38;;;0.95;;
47053;SDS011;32811;52.382;5.270;2023-06-04T14:23:28;3.55;;;0.90;;
47053;SDS011;32811;52.382;5.270;2023-06-04T14:25:54;7.32;;;1.42;;
47053;SDS011;32811;52.382;5.270;2023-06-04T14:28:21;4.38;;;0.98;;
47053;SDS011;32811;52.382;5.270;2023-06-04T14:30:49;4.75;;;1.13;;
47053;SDS011;32811;52.382;5.270;2023-06-04T14:33:15;3.75;;;1.00;;
47053;SDS011;32811;52.382;5.270;2023-06-04T14:35:42;3.15;;;0.95;;
47053;SDS011;32811;52.382;5.270;2023-06-04T14:38:14;5.07;;;1.05;;
47053;SDS011;32811;52.382;5.270;2023-06-04T14:40:41;3.40;;;0.90;;
47053;SDS011;32811;52.382;5.270;2023-06-04T14:43:11;2.85;;;0.95;;
47053;SDS011;32811;52.382;5.270;2023-06-04T14:45:39;4.90;;;1.20;;
47053;SDS011;32811;52.382;5.270;2023-06-04T14:48:07;3.65;;;1.25;;
47053;SDS011;32811;52.382;5.270;2023-06-04T14:50:41;5.15;;;1.65;;
47053;SDS011;32811;52.382;5.270;2023-06-04T14:53:08;3.10;;;1.25;;
47053;SDS011;32811;52.382;5.270;2023-06-04T14:55:36;2.95;;;1.40;;
47053;SDS011;32811;52.382;5.270;2023-06-04T14:58:03;4.93;;;1.52;;
47053;SDS011;32811;52.382;5.270;2023-06-04T15:00:31;2.40;;;1.00;;
47053;SDS011;32811;52.382;5.270;2023-06-04T15:02:58;5.25;;;1.02;;
47053;SDS011;32811;52.382;5.270;2023-06-04T15:05:29;5.57;;;1.33;;
47053;SDS011;32811;52.382;5.270;2023-06-04T15:07:57;3.38;;;1.02;;
47053;SDS011;32811;52.382;5.270;2023-06-04T15:10:24;3.47;;;1.35;;
47053;SDS011;32811;52.382;5.270;2023-06-04T15:12:52;4.40;;;1.08;;
47053;SDS011;32811;52.382;5.270;2023-06-04T15:15:19;3.67;;;1.50;;
47053;SDS011;32811;52.382;5.270;2023-06-04T15:17:46;4.72;;;2.15;;
47053;SDS011;32811;52.382;5.270;2023-06-04T15:20:13;2.78;;;1.10;;
47053;SDS011;32811;52.382;5.270;2023-06-04T15:22:41;3.00;;;1.27;;
47053;SDS011;32811;52.382;5.270;2023-06-04T15:25:08;5.25;;;1.38;;